sensor_id;sensor_type;location;lat;lon;timestamp;temperature;humidity
20288;DHT22;10303;51.960;8.372;2023-07-02T00:01:47;20.50;99.90
20288;DHT22;10303;51.960;8.372;2023-07-02T00:04:14;20.50;99.90
20288;DHT22;10303;51.960;8.372;2023-07-02T00:06:48;20.50;99.90
20288;DHT22;10303;51.960;8.372;2023-07-02T00:09:15;20.40;99.90
20288;DHT22;10303;51.960;8.372;2023-07-02T00:11:43;20.40;99.90
20288;DHT22;10303;51.960;8.372;2023-07-02T00:14:12;20.40;99.90
20288;DHT22;10303;51.960;8.372;2023-07-02T00:16:42;20.40;99.90
20288;DHT22;10303;51.960;8.372;2023-07-02T00:19:09;20.40;99.90
20288;DHT22;10303;51.960;8.372;2023-07-02T00:21:36;20.40;99.90
20288;DHT22;10303;51.960;8.372;2023-07-02T00:24:03;20.40;99.90
20288;DHT22;10303;51.960;8.372;2023-07-02T00:26:29;20.40;99.90
20288;DHT22;10303;51.960;8.372;2023-07-02T00:28:56;20.40;99.90
20288;DHT22;10303;51.960;8.372;2023-07-02T00:31:23;20.50;99.90
20288;DHT22;10303;51.960;8.372;2023-07-02T00:33:50;20.50;99.90
20288;DHT22;10303;51.960;8.372;2023-07-02T00:36:16;20.40;99.90
20288;DHT22;10303;51.960;8.372;2023-07-02T00:38:44;20.40;99.90
20288;DHT22;10303;51.960;8.372;2023-07-02T00:41:13;20.40;99.90
20288;DHT22;10303;51.960;8.372;2023-07-02T00:43:39;20.40;99.90
20288;DHT22;10303;51.960;8.372;2023-07-02T00:46:17;20.40;99.90
20288;DHT22;10303;51.960;8.372;2023-07-02T00:48:55;20.40;99.90
20288;DHT22;10303;51.960;8.372;2023-07-02T00:51:23;20.40;99.90
20288;DHT22;10303;51.960;8.372;2023-07-02T00:53:51;20.40;99.90
20288;DHT22;10303;51.960;8.372;2023-07-02T00:56:20;20.40;99.90
20288;DHT22;10303;51.960;8.372;2023-07-02T00:58:49;20.40;99.90
20288;DHT22;10303;51.960;8.372;2023-07-02T01:01:18;20.40;99.90
20288;DHT22;10303;51.960;8.372;2023-07-02T01:03:51;20.40;99.90
20288;DHT22;10303;51.960;8.372;2023-07-02T01:06:32;20.40;99.90
20288;DHT22;10303;51.960;8.372;2023-07-02T01:09:02;20.40;99.90
20288;DHT22;10303;51.960;8.372;2023-07-02T01:11:45;20.40;99.90
20288;DHT22;10303;51.960;8.372;2023-07-02T01:14:36;20.30;99.90
20288;DHT22;10303;51.960;8.372;2023-07-02T01:17:06;20.30;99.90
20288;DHT22;10303;51.960;8.372;2023-07-02T01:19:49;20.40;99.90
20288;DHT22;10303;51.960;8.372;2023-07-02T01:22:25;20.30;99.90
20288;DHT22;10303;51.960;8.372;2023-07-02T01:24:54;20.30;99.90
20288;DHT22;10303;51.960;8.372;2023-07-02T01:27:21;20.30;99.90
20288;DHT22;10303;51.960;8.372;2023-07-02T01:29:52;20.30;99.90
20288;DHT22;10303;51.960;8.372;2023-07-02T01:32:18;20.30;99.90
20288;DHT22;10303;51.960;8.372;2023-07-02T01:34:45;20.30;99.90
20288;DHT22;10303;51.960;8.372;2023-07-02T01:37:17;20.30;99.90
20288;DHT22;10303;51.960;8.372;2023-07-02T01:39:45;20.30;99.90
20288;DHT22;10303;51.960;8.372;2023-07-02T01:42:14;20.30;99.90
20288;DHT22;10303;51.960;8.372;2023-07-02T01:44:46;20.20;99.90
20288;DHT22;10303;51.960;8.372;2023-07-02T01:47:14;20.20;99.90
20288;DHT22;10303;51.960;8.372;2023-07-02T01:49:41;20.20;99.90
20288;DHT22;10303;51.960;8.372;2023-07-02T01:52:08;20.20;99.90
20288;DHT22;10303;51.960;8.372;2023-07-02T01:54:35;20.20;99.90
20288;DHT22;10303;51.960;8.372;2023-07-02T01:57:02;20.20;99.90
20288;DHT22;10303;51.960;8.372;2023-07-02T01:59:29;20.20;99.90
20288;DHT22;10303;51.960;8.372;2023-07-02T02:01:56;20.20;99.90
20288;DHT22;10303;51.960;8.372;2023-07-02T02:04:22;20.20;99.90
20288;DHT22;10303;51.960;8.372;2023-07-02T02:06:49;20.20;99.90
20288;DHT22;10303;51.960;8.372;2023-07-02T02:09:16;20.20;99.90
20288;DHT22;10303;51.960;8.372;2023-07-02T02:11:44;20.20;99.90
20288;DHT22;10303;51.960;8.372;2023-07-02T02:14:13;20.20;99.90
20288;DHT22;10303;51.960;8.372;2023-07-02T02:16:39;20.20;99.90
20288;DHT22;10303;51.960;8.372;2023-07-02T02:19:05;20.10;99.90
20288;DHT22;10303;51.960;8.372;2023-07-02T02:21:32;20.10;99.90
20288;DHT22;10303;51.960;8.372;2023-07-02T02:23:58;20.20;99.90
20288;DHT22;10303;51.960;8.372;2023-07-02T02:26:26;20.10;99.90
20288;DHT22;10303;51.960;8.372;2023-07-02T02:28:52;20.10;99.90
20288;DHT22;10303;51.960;8.372;2023-07-02T02:31:19;20.10;99.90
20288;DHT22;10303;51.960;8.372;2023-07-02T02:33:45;20.10;99.90
20288;DHT22;10303;51.960;8.372;2023-07-02T02:36:12;20.20;99.90
20288;DHT22;10303;51.960;8.372;2023-07-02T02:38:39;20.10;99.90
20288;DHT22;10303;51.960;8.372;2023-07-02T02:41:05;20.10;99.90
20288;DHT22;10303;51.960;8.372;2023-07-02T02:43:35;20.10;99.90
20288;DHT22;10303;51.960;8.372;2023-07-02T02:46:02;20.10;99.90
20288;DHT22;10303;51.960;8.372;2023-07-02T02:48:28;20.10;99.90
20288;DHT22;10303;51.960;8.372;2023-07-02T02:50:54;20.10;99.90
20288;DHT22;10303;51.960;8.372;2023-07-02T02:53:20;20.10;99.90
20288;DHT22;10303;51.960;8.372;2023-07-02T02:55:46;20.10;99.90
20288;DHT22;10303;51.960;8.372;2023-07-02T02:58:12;20.10;99.90
20288;DHT22;10303;51.960;8.372;2023-07-02T03:00:38;20.10;99.90
20288;DHT22;10303;51.960;8.372;2023-07-02T03:03:08;20.20;99.90
20288;DHT22;10303;51.960;8.372;2023-07-02T03:05:34;20.10;99.90
20288;DHT22;10303;51.960;8.372;2023-07-02T03:08:00;20.20;99.90
20288;DHT22;10303;51.960;8.372;2023-07-02T03:10:26;20.10;99.90
20288;DHT22;10303;51.960;8.372;2023-07-02T03:12:52;20.10;99.90
20288;DHT22;10303;51.960;8.372;2023-07-02T03:15:18;20.10;99.90
20288;DHT22;10303;51.960;8.372;2023-07-02T03:17:43;20.20;99.90
20288;DHT22;10303;51.960;8.372;2023-07-02T03:20:10;20.20;99.90
20288;DHT22;10303;51.960;8.372;2023-07-02T03:22:36;20.20;99.90
20288;DHT22;10303;51.960;8.372;2023-07-02T03:25:02;20.20;99.90
20288;DHT22;10303;51.960;8.372;2023-07-02T03:27:28;20.20;99.90
20288;DHT22;10303;51.960;8.372;2023-07-02T03:29:54;20.20;99.90
20288;DHT22;10303;51.960;8.372;2023-07-02T03:32:20;20.20;99.90
20288;DHT22;10303;51.960;8.372;2023-07-02T03:34:46;20.20;99.90
20288;DHT22;10303;51.960;8.372;2023-07-02T03:37:12;20.20;99.90
20288;DHT22;10303;51.960;8.372;2023-07-02T03:39:38;20.20;99.90
20288;DHT22;10303;51.960;8.372;2023-07-02T03:42:05;20.30;99.90
20288;DHT22;10303;51.960;8.372;2023-07-02T03:44:31;20.20;99.90
20288;DHT22;10303;51.960;8.372;2023-07-02T03:46:57;20.20;99.90
20288;DHT22;10303;51.960;8.372;2023-07-02T03:49:23;20.20;99.90
20288;DHT22;10303;51.960;8.372;2023-07-02T03:51:49;20.20;99.90
20288;DHT22;10303;51.960;8.372;2023-07-02T03:54:15;20.20;99.90
20288;DHT22;10303;51.960;8.372;2023-07-02T03:56:42;20.20;99.90
20288;DHT22;10303;51.960;8.372;2023-07-02T03:59:07;20.20;99.90
20288;DHT22;10303;51.960;8.372;2023-07-02T04:01:33;20.20;99.90
20288;DHT22;10303;51.960;8.372;2023-07-02T04:03:59;20.20;99.90
20288;DHT22;10303;51.960;8.372;2023-07-02T04:06:25;20.10;99.90
20288;DHT22;10303;51.960;8.372;2023-07-02T04:08:51;20.00;99.90
20288;DHT22;10303;51.960;8.372;2023-07-02T04:11:17;20.00;99.90
20288;DHT22;10303;51.960;8.372;2023-07-02T04:13:43;20.00;99.90
20288;DHT22;10303;51.960;8.372;2023-07-02T04:16:09;20.00;99.90
20288;DHT22;10303;51.960;8.372;2023-07-02T04:18:35;19.90;99.90
20288;DHT22;10303;51.960;8.372;2023-07-02T04:21:01;19.80;99.90
20288;DHT22;10303;51.960;8.372;2023-07-02T04:23:28;19.80;99.90
20288;DHT22;10303;51.960;8.372;2023-07-02T04:25:54;19.80;99.90
20288;DHT22;10303;51.960;8.372;2023-07-02T04:28:20;19.80;99.90
20288;DHT22;10303;51.960;8.372;2023-07-02T04:30:46;19.80;99.90
20288;DHT22;10303;51.960;8.372;2023-07-02T04:33:15;19.80;99.90
20288;DHT22;10303;51.960;8.372;2023-07-02T04:35:41;19.80;99.90
20288;DHT22;10303;51.960;8.372;2023-07-02T04:38:07;19.70;99.90
20288;DHT22;10303;51.960;8.372;2023-07-02T04:40:33;19.70;99.90
20288;DHT22;10303;51.960;8.372;2023-07-02T04:43:00;19.70;99.90
20288;DHT22;10303;51.960;8.372;2023-07-02T04:45:26;19.60;99.90
20288;DHT22;10303;51.960;8.372;2023-07-02T04:47:57;19.70;99.90
20288;DHT22;10303;51.960;8.372;2023-07-02T04:50:26;19.70;99.90
20288;DHT22;10303;51.960;8.372;2023-07-02T04:52:52;19.70;99.90
20288;DHT22;10303;51.960;8.372;2023-07-02T04:55:18;19.60;99.90
20288;DHT22;10303;51.960;8.372;2023-07-02T04:57:44;19.60;99.90
20288;DHT22;10303;51.960;8.372;2023-07-02T05:00:11;19.60;99.90
20288;DHT22;10303;51.960;8.372;2023-07-02T05:02:38;19.60;99.90
20288;DHT22;10303;51.960;8.372;2023-07-02T05:05:04;19.60;99.90
20288;DHT22;10303;51.960;8.372;2023-07-02T05:07:30;19.40;99.90
20288;DHT22;10303;51.960;8.372;2023-07-02T05:09:57;19.40;99.90
20288;DHT22;10303;51.960;8.372;2023-07-02T05:12:23;19.40;99.90
20288;DHT22;10303;51.960;8.372;2023-07-02T05:14:49;19.30;99.90
20288;DHT22;10303;51.960;8.372;2023-07-02T05:17:15;19.40;99.90
20288;DHT22;10303;51.960;8.372;2023-07-02T05:19:41;19.50;99.90
20288;DHT22;10303;51.960;8.372;2023-07-02T05:22:11;19.50;99.90
20288;DHT22;10303;51.960;8.372;2023-07-02T05:24:37;19.50;99.90
20288;DHT22;10303;51.960;8.372;2023-07-02T05:27:04;19.50;99.90
20288;DHT22;10303;51.960;8.372;2023-07-02T05:29:30;19.50;99.90
20288;DHT22;10303;51.960;8.372;2023-07-02T05:31:56;19.50;99.90
20288;DHT22;10303;51.960;8.372;2023-07-02T05:34:22;19.60;99.90
20288;DHT22;10303;51.960;8.372;2023-07-02T05:36:48;19.60;99.90
20288;DHT22;10303;51.960;8.372;2023-07-02T05:39:14;19.60;99.90
20288;DHT22;10303;51.960;8.372;2023-07-02T05:41:39;19.70;99.90
20288;DHT22;10303;51.960;8.372;2023-07-02T05:44:05;19.70;99.90
20288;DHT22;10303;51.960;8.372;2023-07-02T05:46:31;19.70;99.90
20288;DHT22;10303;51.960;8.372;2023-07-02T05:48:57;19.60;99.90
20288;DHT22;10303;51.960;8.372;2023-07-02T05:51:24;19.60;99.90
20288;DHT22;10303;51.960;8.372;2023-07-02T05:53:50;19.70;99.90
20288;DHT22;10303;51.960;8.372;2023-07-02T05:56:18;19.70;99.90
20288;DHT22;10303;51.960;8.372;2023-07-02T05:58:45;19.70;99.90
20288;DHT22;10303;51.960;8.372;2023-07-02T06:01:12;19.70;99.90
20288;DHT22;10303;51.960;8.372;2023-07-02T06:03:38;19.70;99.90
20288;DHT22;10303;51.960;8.372;2023-07-02T06:06:04;19.70;99.90
20288;DHT22;10303;51.960;8.372;2023-07-02T06:08:30;19.70;99.90
20288;DHT22;10303;51.960;8.372;2023-07-02T06:10:56;19.80;99.90
20288;DHT22;10303;51.960;8.372;2023-07-02T06:13:22;19.80;99.90
20288;DHT22;10303;51.960;8.372;2023-07-02T06:15:48;19.80;99.90
20288;DHT22;10303;51.960;8.372;2023-07-02T06:18:14;19.90;99.90
20288;DHT22;10303;51.960;8.372;2023-07-02T06:20:40;19.80;99.90
20288;DHT22;10303;51.960;8.372;2023-07-02T06:23:06;19.80;99.90
20288;DHT22;10303;51.960;8.372;2023-07-02T06:25:32;19.80;99.90
20288;DHT22;10303;51.960;8.372;2023-07-02T06:27:59;19.90;99.90
20288;DHT22;10303;51.960;8.372;2023-07-02T06:30:25;19.90;99.90
20288;DHT22;10303;51.960;8.372;2023-07-02T06:32:53;19.90;99.90
20288;DHT22;10303;51.960;8.372;2023-07-02T06:35:19;19.80;99.90
20288;DHT22;10303;51.960;8.372;2023-07-02T06:37:46;19.90;99.90
20288;DHT22;10303;51.960;8.372;2023-07-02T06:40:12;19.90;99.90
20288;DHT22;10303;51.960;8.372;2023-07-02T06:42:38;19.90;99.90
20288;DHT22;10303;51.960;8.372;2023-07-02T06:45:05;20.00;99.90
20288;DHT22;10303;51.960;8.372;2023-07-02T06:47:31;20.00;99.90
20288;DHT22;10303;51.960;8.372;2023-07-02T06:49:58;20.10;99.90
20288;DHT22;10303;51.960;8.372;2023-07-02T06:52:24;20.10;99.90
20288;DHT22;10303;51.960;8.372;2023-07-02T06:54:51;20.10;99.90
20288;DHT22;10303;51.960;8.372;2023-07-02T06:57:17;20.10;99.90
20288;DHT22;10303;51.960;8.372;2023-07-02T06:59:43;20.10;99.90
20288;DHT22;10303;51.960;8.372;2023-07-02T07:02:09;20.20;99.90
20288;DHT22;10303;51.960;8.372;2023-07-02T07:04:35;19.90;99.90
20288;DHT22;10303;51.960;8.372;2023-07-02T07:07:01;19.70;99.90
20288;DHT22;10303;51.960;8.372;2023-07-02T07:09:30;19.60;99.90
20288;DHT22;10303;51.960;8.372;2023-07-02T07:11:56;19.30;99.90
20288;DHT22;10303;51.960;8.372;2023-07-02T07:14:22;19.10;99.90
20288;DHT22;10303;51.960;8.372;2023-07-02T07:16:49;19.30;99.90
20288;DHT22;10303;51.960;8.372;2023-07-02T07:19:16;19.30;99.90
20288;DHT22;10303;51.960;8.372;2023-07-02T07:21:42;19.40;99.90
20288;DHT22;10303;51.960;8.372;2023-07-02T07:24:09;19.40;99.90
20288;DHT22;10303;51.960;8.372;2023-07-02T07:26:35;19.60;99.90
20288;DHT22;10303;51.960;8.372;2023-07-02T07:29:01;19.60;99.90
20288;DHT22;10303;51.960;8.372;2023-07-02T07:31:27;19.60;99.90
20288;DHT22;10303;51.960;8.372;2023-07-02T07:33:53;19.70;99.90
20288;DHT22;10303;51.960;8.372;2023-07-02T07:36:19;19.70;99.90
20288;DHT22;10303;51.960;8.372;2023-07-02T07:38:46;19.70;99.90
20288;DHT22;10303;51.960;8.372;2023-07-02T07:41:11;19.70;99.90
20288;DHT22;10303;51.960;8.372;2023-07-02T07:43:37;19.70;99.90
20288;DHT22;10303;51.960;8.372;2023-07-02T07:46:03;19.60;99.90
20288;DHT22;10303;51.960;8.372;2023-07-02T07:48:29;19.70;99.90
20288;DHT22;10303;51.960;8.372;2023-07-02T07:50:55;19.90;99.90
20288;DHT22;10303;51.960;8.372;2023-07-02T07:53:21;20.10;99.90
20288;DHT22;10303;51.960;8.372;2023-07-02T07:55:47;20.10;99.90
20288;DHT22;10303;51.960;8.372;2023-07-02T07:58:13;19.90;99.90
20288;DHT22;10303;51.960;8.372;2023-07-02T08:00:39;20.10;99.90
20288;DHT22;10303;51.960;8.372;2023-07-02T08:03:05;20.20;99.90
20288;DHT22;10303;51.960;8.372;2023-07-02T08:05:32;19.90;99.90
20288;DHT22;10303;51.960;8.372;2023-07-02T08:07:57;20.00;99.90
20288;DHT22;10303;51.960;8.372;2023-07-02T08:10:24;19.80;99.90
20288;DHT22;10303;51.960;8.372;2023-07-02T08:12:51;19.80;99.90
20288;DHT22;10303;51.960;8.372;2023-07-02T08:15:18;20.00;99.90
20288;DHT22;10303;51.960;8.372;2023-07-02T08:17:44;19.70;99.90
20288;DHT22;10303;51.960;8.372;2023-07-02T08:20:11;19.80;99.90
20288;DHT22;10303;51.960;8.372;2023-07-02T08:22:38;19.80;99.90
20288;DHT22;10303;51.960;8.372;2023-07-02T08:25:05;20.00;99.90
20288;DHT22;10303;51.960;8.372;2023-07-02T08:27:32;20.10;99.90
20288;DHT22;10303;51.960;8.372;2023-07-02T08:29:58;20.10;99.90
20288;DHT22;10303;51.960;8.372;2023-07-02T08:32:24;20.00;98.50
20288;DHT22;10303;51.960;8.372;2023-07-02T08:34:50;20.10;98.80
20288;DHT22;10303;51.960;8.372;2023-07-02T08:37:19;20.10;98.40
20288;DHT22;10303;51.960;8.372;2023-07-02T08:39:46;20.00;96.20
20288;DHT22;10303;51.960;8.372;2023-07-02T08:42:12;19.80;97.20
20288;DHT22;10303;51.960;8.372;2023-07-02T08:44:38;19.70;97.20
20288;DHT22;10303;51.960;8.372;2023-07-02T08:47:05;19.90;97.70
20288;DHT22;10303;51.960;8.372;2023-07-02T08:49:31;20.10;98.30
20288;DHT22;10303;51.960;8.372;2023-07-02T08:51:58;20.20;97.20
20288;DHT22;10303;51.960;8.372;2023-07-02T08:54:24;20.00;93.00
20288;DHT22;10303;51.960;8.372;2023-07-02T08:56:50;20.30;96.00
20288;DHT22;10303;51.960;8.372;2023-07-02T08:59:16;20.20;94.30
20288;DHT22;10303;51.960;8.372;2023-07-02T09:01:46;20.40;95.10
20288;DHT22;10303;51.960;8.372;2023-07-02T09:04:21;20.40;92.20
20288;DHT22;10303;51.960;8.372;2023-07-02T09:07:06;20.50;91.80
20288;DHT22;10303;51.960;8.372;2023-07-02T09:09:48;20.40;92.40
20288;DHT22;10303;51.960;8.372;2023-07-02T09:12:30;20.50;92.70
20288;DHT22;10303;51.960;8.372;2023-07-02T09:15:04;20.40;90.50
20288;DHT22;10303;51.960;8.372;2023-07-02T09:17:37;20.40;90.70
20288;DHT22;10303;51.960;8.372;2023-07-02T09:20:05;20.50;91.20
20288;DHT22;10303;51.960;8.372;2023-07-02T09:22:36;20.40;90.10
20288;DHT22;10303;51.960;8.372;2023-07-02T09:25:03;20.20;89.80
20288;DHT22;10303;51.960;8.372;2023-07-02T09:27:35;20.20;90.50
20288;DHT22;10303;51.960;8.372;2023-07-02T09:30:10;20.20;91.10
20288;DHT22;10303;51.960;8.372;2023-07-02T09:32:45;20.10;90.10
20288;DHT22;10303;51.960;8.372;2023-07-02T09:35:12;19.90;91.90
20288;DHT22;10303;51.960;8.372;2023-07-02T09:37:43;20.10;93.00
20288;DHT22;10303;51.960;8.372;2023-07-02T09:40:10;20.40;92.00
20288;DHT22;10303;51.960;8.372;2023-07-02T09:42:38;20.60;91.00
20288;DHT22;10303;51.960;8.372;2023-07-02T09:45:08;20.70;90.80
20288;DHT22;10303;51.960;8.372;2023-07-02T09:47:42;20.90;90.60
20288;DHT22;10303;51.960;8.372;2023-07-02T09:50:14;21.10;88.50
20288;DHT22;10303;51.960;8.372;2023-07-02T09:52:44;21.10;90.30
20288;DHT22;10303;51.960;8.372;2023-07-02T09:55:12;20.90;86.40
20288;DHT22;10303;51.960;8.372;2023-07-02T09:57:40;20.80;88.30
20288;DHT22;10303;51.960;8.372;2023-07-02T10:00:10;20.80;88.20
20288;DHT22;10303;51.960;8.372;2023-07-02T10:02:37;20.80;87.10
20288;DHT22;10303;51.960;8.372;2023-07-02T10:05:04;20.80;89.90
20288;DHT22;10303;51.960;8.372;2023-07-02T10:07:31;20.80;87.20
20288;DHT22;10303;51.960;8.372;2023-07-02T10:09:59;20.50;86.20
20288;DHT22;10303;51.960;8.372;2023-07-02T10:12:30;20.50;88.20
20288;DHT22;10303;51.960;8.372;2023-07-02T10:14:58;20.80;91.40
20288;DHT22;10303;51.960;8.372;2023-07-02T10:17:29;20.80;90.30
20288;DHT22;10303;51.960;8.372;2023-07-02T10:20:07;21.00;90.50
20288;DHT22;10303;51.960;8.372;2023-07-02T10:22:48;21.00;90.10
20288;DHT22;10303;51.960;8.372;2023-07-02T10:25:30;20.80;90.20
20288;DHT22;10303;51.960;8.372;2023-07-02T10:27:58;20.70;90.20
20288;DHT22;10303;51.960;8.372;2023-07-02T10:30:37;20.80;90.00
20288;DHT22;10303;51.960;8.372;2023-07-02T10:33:22;20.80;90.80
20288;DHT22;10303;51.960;8.372;2023-07-02T10:35:50;21.00;91.70
20288;DHT22;10303;51.960;8.372;2023-07-02T10:40:46;21.40;90.10
20288;DHT22;10303;51.960;8.372;2023-07-02T10:43:13;21.70;88.70
20288;DHT22;10303;51.960;8.372;2023-07-02T10:45:39;21.60;88.40
20288;DHT22;10303;51.960;8.372;2023-07-02T10:48:10;21.70;90.00
20288;DHT22;10303;51.960;8.372;2023-07-02T10:50:36;21.80;90.10
20288;DHT22;10303;51.960;8.372;2023-07-02T10:53:14;21.80;87.60
20288;DHT22;10303;51.960;8.372;2023-07-02T10:55:44;21.90;88.70
20288;DHT22;10303;51.960;8.372;2023-07-02T10:58:12;21.90;87.40
20288;DHT22;10303;51.960;8.372;2023-07-02T11:00:47;22.00;84.70
20288;DHT22;10303;51.960;8.372;2023-07-02T11:03:22;22.20;86.90
20288;DHT22;10303;51.960;8.372;2023-07-02T11:05:50;22.20;87.50
20288;DHT22;10303;51.960;8.372;2023-07-02T11:08:17;22.40;88.30
20288;DHT22;10303;51.960;8.372;2023-07-02T11:10:45;22.30;85.40
20288;DHT22;10303;51.960;8.372;2023-07-02T11:13:19;22.30;84.80
20288;DHT22;10303;51.960;8.372;2023-07-02T11:15:46;22.30;88.50
20288;DHT22;10303;51.960;8.372;2023-07-02T11:18:13;22.60;87.60
20288;DHT22;10303;51.960;8.372;2023-07-02T11:20:43;22.60;86.60
20288;DHT22;10303;51.960;8.372;2023-07-02T11:23:36;22.70;88.60
20288;DHT22;10303;51.960;8.372;2023-07-02T11:26:03;23.00;91.20
20288;DHT22;10303;51.960;8.372;2023-07-02T11:28:30;23.10;88.10
20288;DHT22;10303;51.960;8.372;2023-07-02T11:30:58;23.10;86.40
20288;DHT22;10303;51.960;8.372;2023-07-02T11:33:34;23.40;86.00
20288;DHT22;10303;51.960;8.372;2023-07-02T11:36:05;23.50;84.20
20288;DHT22;10303;51.960;8.372;2023-07-02T11:38:34;23.40;83.70
20288;DHT22;10303;51.960;8.372;2023-07-02T11:41:05;23.20;84.20
20288;DHT22;10303;51.960;8.372;2023-07-02T11:43:32;22.80;86.20
20288;DHT22;10303;51.960;8.372;2023-07-02T11:45:59;22.60;82.80
20288;DHT22;10303;51.960;8.372;2023-07-02T11:48:26;22.70;87.90
20288;DHT22;10303;51.960;8.372;2023-07-02T11:50:52;22.90;88.00
20288;DHT22;10303;51.960;8.372;2023-07-02T11:53:18;23.00;84.70
20288;DHT22;10303;51.960;8.372;2023-07-02T11:55:45;23.00;83.30
20288;DHT22;10303;51.960;8.372;2023-07-02T11:58:11;23.30;86.30
20288;DHT22;10303;51.960;8.372;2023-07-02T12:00:37;23.50;85.70
20288;DHT22;10303;51.960;8.372;2023-07-02T12:03:05;23.70;81.70
20288;DHT22;10303;51.960;8.372;2023-07-02T12:05:31;23.70;82.10
20288;DHT22;10303;51.960;8.372;2023-07-02T12:07:59;23.80;83.10
20288;DHT22;10303;51.960;8.372;2023-07-02T12:10:25;23.50;79.90
20288;DHT22;10303;51.960;8.372;2023-07-02T12:12:51;23.60;81.70
20288;DHT22;10303;51.960;8.372;2023-07-02T12:15:17;23.50;82.00
20288;DHT22;10303;51.960;8.372;2023-07-02T12:17:44;23.50;82.20
20288;DHT22;10303;51.960;8.372;2023-07-02T12:20:10;23.40;83.40
20288;DHT22;10303;51.960;8.372;2023-07-02T12:22:37;23.40;82.00
20288;DHT22;10303;51.960;8.372;2023-07-02T12:25:04;23.20;75.20
20288;DHT22;10303;51.960;8.372;2023-07-02T12:27:30;23.00;75.70
20288;DHT22;10303;51.960;8.372;2023-07-02T12:29:56;23.30;77.10
20288;DHT22;10303;51.960;8.372;2023-07-02T12:32:23;23.40;76.90
20288;DHT22;10303;51.960;8.372;2023-07-02T12:34:49;23.40;73.90
20288;DHT22;10303;51.960;8.372;2023-07-02T12:37:15;23.40;77.40
20288;DHT22;10303;51.960;8.372;2023-07-02T12:39:44;23.60;77.90
20288;DHT22;10303;51.960;8.372;2023-07-02T12:42:09;24.00;79.20
20288;DHT22;10303;51.960;8.372;2023-07-02T12:44:35;24.20;78.00
20288;DHT22;10303;51.960;8.372;2023-07-02T12:47:01;24.40;81.30
20288;DHT22;10303;51.960;8.372;2023-07-02T12:49:27;24.20;76.00
20288;DHT22;10303;51.960;8.372;2023-07-02T12:51:53;24.20;75.10
20288;DHT22;10303;51.960;8.372;2023-07-02T12:54:19;24.20;74.60
20288;DHT22;10303;51.960;8.372;2023-07-02T12:56:45;24.10;76.60
20288;DHT22;10303;51.960;8.372;2023-07-02T12:59:11;24.10;76.00
20288;DHT22;10303;51.960;8.372;2023-07-02T13:01:37;24.20;78.10
20288;DHT22;10303;51.960;8.372;2023-07-02T13:04:03;24.10;74.00
20288;DHT22;10303;51.960;8.372;2023-07-02T13:06:29;24.20;76.00
20288;DHT22;10303;51.960;8.372;2023-07-02T13:08:59;24.20;72.50
20288;DHT22;10303;51.960;8.372;2023-07-02T13:11:25;24.00;70.90
20288;DHT22;10303;51.960;8.372;2023-07-02T13:13:52;24.10;71.70
20288;DHT22;10303;51.960;8.372;2023-07-02T13:16:18;24.10;73.40
20288;DHT22;10303;51.960;8.372;2023-07-02T13:18:44;24.20;75.40
20288;DHT22;10303;51.960;8.372;2023-07-02T13:21:10;24.10;73.10
20288;DHT22;10303;51.960;8.372;2023-07-02T13:23:36;24.10;73.20
20288;DHT22;10303;51.960;8.372;2023-07-02T13:26:04;24.20;74.20
20288;DHT22;10303;51.960;8.372;2023-07-02T13:28:30;24.30;75.10
20288;DHT22;10303;51.960;8.372;2023-07-02T13:30:56;24.30;73.50
20288;DHT22;10303;51.960;8.372;2023-07-02T13:33:22;24.50;74.20
20288;DHT22;10303;51.960;8.372;2023-07-02T13:35:48;24.30;71.60
20288;DHT22;10303;51.960;8.372;2023-07-02T13:38:14;24.30;72.30
20288;DHT22;10303;51.960;8.372;2023-07-02T13:40:40;24.20;70.50
20288;DHT22;10303;51.960;8.372;2023-07-02T13:43:06;24.30;71.90
20288;DHT22;10303;51.960;8.372;2023-07-02T13:45:32;24.10;70.20
20288;DHT22;10303;51.960;8.372;2023-07-02T13:47:58;24.00;71.20
20288;DHT22;10303;51.960;8.372;2023-07-02T13:50:24;23.90;72.80
20288;DHT22;10303;51.960;8.372;2023-07-02T13:52:50;23.60;70.90
20288;DHT22;10303;51.960;8.372;2023-07-02T13:55:16;23.60;71.20
20288;DHT22;10303;51.960;8.372;2023-07-02T13:57:42;23.70;72.30
20288;DHT22;10303;51.960;8.372;2023-07-02T14:00:09;23.60;73.30
20288;DHT22;10303;51.960;8.372;2023-07-02T14:02:35;23.70;75.30
20288;DHT22;10303;51.960;8.372;2023-07-02T14:05:01;23.70;74.00
20288;DHT22;10303;51.960;8.372;2023-07-02T14:07:27;23.80;74.70
20288;DHT22;10303;51.960;8.372;2023-07-02T14:09:53;23.70;74.20
20288;DHT22;10303;51.960;8.372;2023-07-02T14:12:21;23.50;74.00
20288;DHT22;10303;51.960;8.372;2023-07-02T14:14:47;23.60;73.00
20288;DHT22;10303;51.960;8.372;2023-07-02T14:17:13;23.70;74.60
20288;DHT22;10303;51.960;8.372;2023-07-02T14:19:39;23.70;73.80
20288;DHT22;10303;51.960;8.372;2023-07-02T14:22:05;23.40;73.40
20288;DHT22;10303;51.960;8.372;2023-07-02T14:24:31;23.30;73.50
20288;DHT22;10303;51.960;8.372;2023-07-02T14:26:59;23.20;74.20
20288;DHT22;10303;51.960;8.372;2023-07-02T14:29:25;23.20;75.50
20288;DHT22;10303;51.960;8.372;2023-07-02T14:31:51;23.40;75.40
20288;DHT22;10303;51.960;8.372;2023-07-02T14:34:19;23.20;77.00
20288;DHT22;10303;51.960;8.372;2023-07-02T14:36:45;23.30;77.00
20288;DHT22;10303;51.960;8.372;2023-07-02T14:39:11;23.20;77.50
20288;DHT22;10303;51.960;8.372;2023-07-02T14:41:37;23.20;77.50
20288;DHT22;10303;51.960;8.372;2023-07-02T14:44:04;23.20;76.90
20288;DHT22;10303;51.960;8.372;2023-07-02T14:46:31;23.30;76.80
20288;DHT22;10303;51.960;8.372;2023-07-02T14:48:58;23.10;76.70
20288;DHT22;10303;51.960;8.372;2023-07-02T14:51:24;23.20;76.70
20288;DHT22;10303;51.960;8.372;2023-07-02T14:53:50;23.10;76.80
20288;DHT22;10303;51.960;8.372;2023-07-02T14:56:17;23.00;77.00
20288;DHT22;10303;51.960;8.372;2023-07-02T14:58:44;23.10;78.50
20288;DHT22;10303;51.960;8.372;2023-07-02T15:01:10;23.00;79.80
20288;DHT22;10303;51.960;8.372;2023-07-02T15:03:36;23.00;79.60
20288;DHT22;10303;51.960;8.372;2023-07-02T15:06:07;22.90;77.70
20288;DHT22;10303;51.960;8.372;2023-07-02T15:08:39;22.80;77.50
20288;DHT22;10303;51.960;8.372;2023-07-02T15:11:06;22.80;78.30
20288;DHT22;10303;51.960;8.372;2023-07-02T15:13:33;22.90;77.80
20288;DHT22;10303;51.960;8.372;2023-07-02T15:15:59;23.00;79.00
20288;DHT22;10303;51.960;8.372;2023-07-02T15:18:27;23.10;80.00
20288;DHT22;10303;51.960;8.372;2023-07-02T15:20:53;23.00;77.50
20288;DHT22;10303;51.960;8.372;2023-07-02T15:23:21;23.20;78.40
20288;DHT22;10303;51.960;8.372;2023-07-02T15:25:58;23.20;77.20
20288;DHT22;10303;51.960;8.372;2023-07-02T15:28:26;23.10;77.50
20288;DHT22;10303;51.960;8.372;2023-07-02T15:30:55;23.00;78.70
20288;DHT22;10303;51.960;8.372;2023-07-02T15:33:23;23.20;79.40
20288;DHT22;10303;51.960;8.372;2023-07-02T15:35:50;23.20;78.10